Time;durP1;ratioP1;P1;durP2;ratioP2;P2;SDS_P1;SDS_P2;PMS_P1;PMS_P2;Temp;Humidity;BMP_temperature;BMP_pressure;BME280_temperature;BME280_humidity;BME280_pressure;Samples;Min_cycle;Max_cycle;Signal;HPM_P1;HPM_P2
2022/03/06 00:01:03;;;;;;;11.75;7.10;;;;;;;1.54;65.62;101186.69;5006550;28;20046;-73
2022/03/06 00:03:29;;;;;;;14.30;9.40;;;;;;;1.76;64.79;101201.56;5008009;28;20041;-74
2022/03/06 00:05:55;;;;;;;9.95;5.78;;;;;;;1.75;64.72;101204.06;5009731;28;20089;-74
2022/03/06 00:08:20;;;;;;;11.70;5.88;;;;;;;1.25;64.27;101180.09;5004162;28;20288;-74
2022/03/06 00:10:47;;;;;;;14.90;8.77;;;;;;;1.16;66.03;101190.84;5008230;28;20053;-73
2022/03/06 00:13:14;;;;;;;9.90;6.38;;;;;;;1.01;65.60;101193.53;5008888;28;20064;-72
2022/03/06 00:15:41;;;;;;;13.93;9.63;;;;;;;1.53;65.53;101200.44;5007449;28;20077;-72
2022/03/06 00:18:06;;;;;;;10.35;6.47;;;;;;;1.45;64.88;101188.81;5006171;28;20059;-72
2022/03/06 00:20:32;;;;;;;13.88;9.35;;;;;;;1.59;64.70;101202.41;5007146;28;20489;-74
2022/03/06 00:22:57;;;;;;;12.27;9.07;;;;;;;1.27;65.40;101189.69;5007377;28;20497;-72
2022/03/06 00:25:23;;;;;;;10.60;5.50;;;;;;;1.45;65.21;101183.63;5008965;28;20433;-74
2022/03/06 00:27:48;;;;;;;11.80;5.55;;;;;;;1.53;64.58;101194.38;5034767;28;20462;-75
2022/03/06 00:30:14;;;;;;;14.35;9.88;;;;;;;1.34;64.95;101180.53;5006789;28;20043;-72
2022/03/06 00:32:40;;;;;;;11.20;5.55;;;;;;;1.30;65.61;101176.03;5005787;28;20036;-75
2022/03/06 00:35:06;;;;;;;15.63;10.75;;;;;;;1.28;65.10;101177.63;5007319;28;20062;-75
2022/03/06 00:37:31;;;;;;;11.57;7.15;;;;;;;1.49;65.46;101188.16;5007311;28;20042;-75
2022/03/06 00:39:57;;;;;;;14.63;9.85;;;;;;;1.31;65.04;101174.31;5008350;28;20050;-72
2022/03/06 00:42:22;;;;;;;11.57;5.22;;;;;;;1.46;64.96;101188.91;5009230;28;20029;-74
2022/03/06 00:44:47;;;;;;;15.93;10.40;;;;;;;1.22;65.01;101182.53;5005727;28;20042;-74
2022/03/06 00:47:13;;;;;;;13.07;9.40;;;;;;;1.22;65.51;101169.59;5005867;28;20053;-74
2022/03/06 00:49:38;;;;;;;13.60;7.53;;;;;;;1.21;65.13;101160.94;5008264;28;20064;-74
2022/03/06 00:52:04;;;;;;;9.30;5.80;;;;;;;1.10;65.88;101182.78;5008691;28;20041;-75
2022/03/06 00:54:30;;;;;;;14.63;8.30;;;;;;;1.30;65.68;101181.19;5006239;28;20077;-72
2022/03/06 00:56:55;;;;;;;11.13;6.80;;;;;;;1.23;65.27;101189.47;5006283;28;20026;-72
2022/03/06 00:59:21;;;;;;;13.80;7.07;;;;;;;1.16;65.39;101175.31;5008961;28;20462;-72
2022/03/06 01:01:46;;;;;;;11.68;6.93;;;;;;;1.26;65.90;101190.50;5005120;28;20066;-72
2022/03/06 01:04:12;;;;;;;12.60;8.93;;;;;;;1.16;65.79;101174.44;5004248;28;20434;-71
2022/03/06 01:06:38;;;;;;;13.75;9.55;;;;;;;1.11;66.57;101163.88;5006358;28;20041;-73
2022/03/06 01:09:05;;;;;;;17.00;9.63;;;;;;;1.14;65.73;101183.81;5003515;28;20037;-72
2022/03/06 01:11:30;;;;;;;11.15;6.22;;;;;;;0.84;66.69;101164.28;5005704;28;20098;-72
2022/03/06 01:13:56;;;;;;;13.73;6.50;;;;;;;1.15;66.30;101172.69;5006275;28;20053;-74
2022/03/06 01:16:23;;;;;;;15.15;10.00;;;;;;;1.10;66.42;101181.88;5006680;28;20038;-73
2022/03/06 01:18:48;;;;;;;17.98;10.00;;;;;;;1.19;65.89;101179.75;5003640;28;20061;-72
2022/03/06 01:21:14;;;;;;;12.77;6.97;;;;;;;1.31;65.44;101184.66;5007685;28;20446;-74
2022/03/06 01:23:39;;;;;;;10.63;6.88;;;;;;;0.84;66.29;101163.34;5006504;28;20859;-72
2022/03/06 01:26:05;;;;;;;11.85;6.18;;;;;;;1.05;65.83;101179.06;5007308;28;20048;-72
2022/03/06 01:28:31;;;;;;;11.68;7.25;;;;;;;0.87;66.66;101191.94;5006578;28;20106;-72
2022/03/06 01:30:56;;;;;;;11.98;6.28;;;;;;;0.84;67.16;101191.78;5003325;28;20141;-71
2022/03/06 01:33:22;;;;;;;16.90;10.15;;;;;;;0.81;66.92;101174.41;5004974;28;20041;-71
2022/03/06 01:35:47;;;;;;;11.38;5.95;;;;;;;1.09;66.88;101180.13;5006516;28;20042;-72
2022/03/06 01:38:13;;;;;;;12.88;6.30;;;;;;;1.05;66.88;101184.22;5006114;28;20096;-73
2022/03/06 01:40:38;;;;;;;10.65;7.53;;;;;;;0.93;67.44;101169.00;5007148;28;20041;-72
2022/03/06 01:43:04;;;;;;;10.30;6.50;;;;;;;1.15;66.98;101175.28;5006166;28;20088;-72
2022/03/06 01:45:29;;;;;;;12.73;10.10;;;;;;;1.27;66.66;101176.75;5004348;28;21568;-72
2022/03/06 01:47:56;;;;;;;12.02;6.68;;;;;;;1.08;66.52;101174.06;5006531;28;20501;-72
2022/03/06 01:50:33;;;;;;;12.10;6.75;;;;;;;0.65;67.61;101163.22;5006796;28;20121;-72
2022/03/06 01:53:00;;;;;;;18.10;10.73;;;;;;;0.86;67.80;101177.25;5007804;28;20516;-72
2022/03/06 01:55:27;;;;;;;12.25;8.35;;;;;;;0.84;68.13;101174.59;5006975;28;20034;-73
2022/03/06 01:57:55;;;;;;;12.80;6.88;;;;;;;0.84;67.81;101177.19;5007632;28;20176;-73
2022/03/06 02:00:23;;;;;;;15.32;11.07;;;;;;;0.97;67.49;101178.69;5010257;28;20498;-72
2022/03/06 02:02:49;;;;;;;13.57;6.93;;;;;;;0.81;67.46;101168.38;5011010;28;20033;-73
2022/03/06 02:05:14;;;;;;;10.57;6.28;;;;;;;0.87;69.06;101178.13;5011695;28;20049;-72
2022/03/06 02:07:40;;;;;;;15.38;8.25;;;;;;;1.15;67.51;101189.09;5009847;28;20041;-72
2022/03/06 02:10:08;;;;;;;14.63;11.43;;;;;;;0.85;67.78;101185.81;5010628;28;20049;-72
2022/03/06 02:12:34;;;;;;;12.00;7.15;;;;;;;0.67;68.61;101179.69;5007812;28;20038;-72
2022/03/06 02:15:02;;;;;;;13.38;7.30;;;;;;;0.88;68.62;101190.25;5010097;28;20465;-72
2022/03/06 02:17:28;;;;;;;11.90;7.05;;;;;;;1.11;67.73;101188.84;5010978;28;20046;-72
2022/03/06 02:19:56;;;;;;;11.73;8.10;;;;;;;0.70;68.54;101195.34;5008569;28;20103;-72
2022/03/06 02:22:28;;;;;;;14.05;10.98;;;;;;;0.77;69.02;101181.94;5004008;28;20070;-72
2022/03/06 02:24:54;;;;;;;17.48;8.98;;;;;;;0.56;69.85;101169.69;5005211;28;20496;-72
2022/03/06 02:27:21;;;;;;;15.70;8.52;;;;;;;0.81;69.30;101171.84;5009128;28;20034;-72
2022/03/06 02:29:47;;;;;;;10.77;7.00;;;;;;;0.45;69.98;101177.69;5008840;28;20066;-72
2022/03/06 02:32:15;;;;;;;12.23;6.65;;;;;;;0.68;70.32;101163.38;5006046;28;20050;-72
2022/03/06 02:34:43;;;;;;;9.55;7.00;;;;;;;0.49;70.48;101174.44;5004876;28;20054;-73
2022/03/06 02:37:09;;;;;;;17.92;8.82;;;;;;;0.53;70.96;101159.19;5008499;28;20054;-73
2022/03/06 02:39:35;;;;;;;14.35;8.43;;;;;;;0.48;71.49;101155.47;5007591;28;20057;-72
2022/03/06 02:42:01;;;;;;;22.13;8.32;;;;;;;0.47;71.00;101173.47;5011373;28;20056;-73
2022/03/06 02:44:28;;;;;;;13.13;8.48;;;;;;;0.47;71.56;101158.88;5007982;28;20073;-73
2022/03/06 02:46:54;;;;;;;21.35;12.15;;;;;;;0.63;70.95;101168.28;5007915;28;20069;-72
2022/03/06 02:49:19;;;;;;;13.85;8.55;;;;;;;0.64;71.06;101162.34;5009534;28;20425;-72
2022/03/06 02:51:45;;;;;;;14.45;8.32;;;;;;;0.41;71.84;101169.75;5008295;28;20482;-72
2022/03/06 02:54:20;;;;;;;11.23;7.03;;;;;;;0.59;71.00;101153.47;5007879;28;20040;-72
2022/03/06 02:56:46;;;;;;;11.20;6.07;;;;;;;0.74;71.00;101168.88;5002328;28;20504;-72
2022/03/06 02:59:12;;;;;;;13.48;8.95;;;;;;;0.70;71.22;101164.34;5009896;28;20069;-72
2022/03/06 03:01:41;;;;;;;11.38;7.85;;;;;;;0.75;70.90;101175.78;5009858;28;20482;-72
2022/03/06 03:04:07;;;;;;;12.85;7.65;;;;;;;0.31;71.95;101166.63;5008485;28;20103;-72
2022/03/06 03:06:33;;;;;;;17.40;12.25;;;;;;;0.07;71.90;101176.47;5007341;28;20393;-72
2022/03/06 03:08:59;;;;;;;13.55;7.63;;;;;;;0.02;72.98;101181.41;5008151;28;20044;-72
2022/03/06 03:11:24;;;;;;;16.50;8.50;;;;;;;0.22;72.45;101191.94;5006738;28;20046;-72
2022/03/06 03:13:50;;;;;;;12.82;7.50;;;;;;;0.46;72.29;101187.19;5006944;28;20128;-72
2022/03/06 03:16:16;;;;;;;18.60;13.50;;;;;;;0.42;72.43;101186.13;5008665;28;20486;-72
2022/03/06 03:18:41;;;;;;;10.70;7.35;;;;;;;0.18;72.76;101178.84;5008717;28;20049;-73
2022/03/06 03:21:07;;;;;;;14.30;8.18;;;;;;;0.33;72.47;101176.22;5009411;28;20026;-74
2022/03/06 03:23:32;;;;;;;13.27;8.68;;;;;;;0.49;71.99;101185.69;5009662;28;20454;-74
2022/03/06 03:25:57;;;;;;;14.02;7.60;;;;;;;0.39;72.06;101171.38;5008650;28;20104;-74
2022/03/06 03:28:23;;;;;;;14.32;8.85;;;;;;;0.42;71.89;101178.38;5008344;28;20034;-74
2022/03/06 03:30:49;;;;;;;18.70;11.88;;;;;;;0.33;72.48;101173.63;5005360;28;20429;-75
2022/03/06 03:33:14;;;;;;;19.75;13.45;;;;;;;0.43;72.06;101180.19;5007545;28;20037;-72
2022/03/06 03:35:40;;;;;;;15.65;11.82;;;;;;;0.44;71.92;101187.09;5008886;28;20026;-72
2022/03/06 03:38:05;;;;;;;11.10;7.00;;;;;;;0.34;72.25;101192.59;5002975;28;20046;-73
2022/03/06 03:40:31;;;;;;;13.18;8.68;;;;;;;0.18;72.15;101186.59;5006906;28;20038;-72
2022/03/06 03:42:56;;;;;;;22.90;8.38;;;;;;;0.07;73.30;101197.13;5010858;28;20053;-73
2022/03/06 03:45:23;;;;;;;16.98;9.23;;;;;;;0.19;73.22;101192.66;5009480;28;20030;-73
2022/03/06 03:47:48;;;;;;;11.68;7.75;;;;;;;0.03;73.46;101211.56;5008579;28;20029;-75
2022/03/06 03:50:14;;;;;;;13.02;8.27;;;;;;;0.11;73.18;101197.38;5008158;28;20045;-72
2022/03/06 03:52:40;;;;;;;13.55;7.68;;;;;;;0.00;73.57;101198.50;5006615;28;20038;-72
2022/03/06 03:55:06;;;;;;;12.50;6.97;;;;;;;0.08;73.12;101188.59;5005564;28;20497;-75
2022/03/06 03:57:32;;;;;;;15.35;11.40;;;;;;;-0.11;73.51;101187.59;5005776;28;20034;-73
2022/03/06 03:59:57;;;;;;;19.95;8.30;;;;;;;-0.07;73.76;101198.94;5005807;28;20026;-75
2022/03/06 04:02:23;;;;;;;17.67;8.85;;;;;;;-0.05;74.55;101200.84;5006465;28;20061;-72
2022/03/06 04:04:49;;;;;;;13.75;7.80;;;;;;;0.08;73.88;101194.66;5004300;28;20121;-72
2022/03/06 04:07:15;;;;;;;11.25;8.23;;;;;;;0.08;73.14;101196.34;5007056;28;20048;-72
2022/03/06 04:09:42;;;;;;;12.70;7.93;;;;;;;0.01;74.35;101197.69;5008148;28;20382;-72
2022/03/06 04:12:08;;;;;;;17.05;8.77;;;;;;;-0.15;74.01;101210.53;5007860;28;20113;-74
2022/03/06 04:14:34;;;;;;;12.20;7.13;;;;;;;-0.46;74.66;101203.66;5006780;28;20104;-72
2022/03/06 04:17:00;;;;;;;14.75;7.95;;;;;;;-0.49;74.76;101190.59;5007126;28;20129;-74
2022/03/06 04:19:25;;;;;;;15.23;7.68;;;;;;;-0.16;74.27;101194.19;5006714;28;20042;-72
2022/03/06 04:21:51;;;;;;;12.20;7.85;;;;;;;-0.22;74.23;101197.28;5006760;28;20489;-74
2022/03/06 04:24:17;;;;;;;13.90;8.45;;;;;;;-0.50;75.38;101181.97;5007435;28;20036;-73
2022/03/06 04:26:42;;;;;;;14.23;7.60;;;;;;;-0.45;75.33;101195.09;5007187;28;20374;-74
2022/03/06 04:29:08;;;;;;;17.73;8.38;;;;;;;-0.25;74.90;101201.41;5004582;28;20073;-74
2022/03/06 04:31:33;;;;;;;15.80;8.13;;;;;;;-0.20;74.48;101188.78;5000588;28;20049;-74
2022/03/06 04:33:59;;;;;;;10.95;6.90;;;;;;;-0.55;75.28;101175.66;5006429;28;20042;-73
2022/03/06 04:36:25;;;;;;;19.00;9.13;;;;;;;-0.70;75.78;101186.00;5008294;28;20049;-73
2022/03/06 04:38:51;;;;;;;13.73;7.80;;;;;;;-0.65;75.63;101191.41;5007311;28;20413;-73
2022/03/06 04:41:16;;;;;;;17.52;8.98;;;;;;;-0.61;75.55;101190.75;5006635;28;20050;-73
2022/03/06 04:43:43;;;;;;;13.88;8.40;;;;;;;-0.66;75.80;101198.25;5008196;28;20077;-74
2022/03/06 04:46:09;;;;;;;12.25;7.93;;;;;;;-0.66;75.75;101199.91;5007768;28;20041;-74
2022/03/06 04:48:34;;;;;;;21.00;11.65;;;;;;;-1.22;76.93;101193.19;5006159;28;20045;-74
2022/03/06 04:51:00;;;;;;;13.70;8.15;;;;;;;-0.94;77.36;101194.84;5008133;28;20026;-73
2022/03/06 04:53:25;;;;;;;14.38;8.35;;;;;;;-1.00;77.81;101202.22;5007327;28;20085;-73
2022/03/06 04:55:51;;;;;;;16.60;7.85;;;;;;;-0.78;76.26;101188.91;5006672;28;20128;-73
2022/03/06 04:58:16;;;;;;;19.10;8.52;;;;;;;-1.13;78.41;101198.03;5007649;28;20117;-72
2022/03/06 05:00:42;;;;;;;12.77;8.45;;;;;;;-1.16;78.08;101191.00;5008504;28;20042;-74
2022/03/06 05:03:07;;;;;;;18.63;9.13;;;;;;;-1.47;78.76;101208.88;5006168;28;20036;-73
2022/03/06 05:05:33;;;;;;;17.75;9.15;;;;;;;-1.53;79.48;101209.38;5006200;28;20032;-74
2022/03/06 05:07:58;;;;;;;17.58;9.57;;;;;;;-1.97;80.48;101186.94;5007069;28;20046;-74
2022/03/06 05:10:24;;;;;;;18.80;8.88;;;;;;;-1.62;80.05;101197.63;5007816;28;20092;-74
2022/03/06 05:12:50;;;;;;;13.73;8.13;;;;;;;-1.80;80.17;101210.25;5005646;28;20065;-74
2022/03/06 05:15:15;;;;;;;15.93;8.38;;;;;;;-1.98;80.49;101195.44;5006798;28;20042;-73
2022/03/06 05:17:42;;;;;;;12.40;7.13;;;;;;;-1.88;80.90;101206.31;5004544;28;20088;-74
2022/03/06 05:20:10;;;;;;;11.52;7.78;;;;;;;-2.07;80.93;101207.72;5005107;28;20053;-73
2022/03/06 05:22:36;;;;;;;10.98;6.60;;;;;;;-1.80;80.99;101224.00;5001450;28;20213;-73
2022/03/06 05:25:03;;;;;;;13.00;7.18;;;;;;;-1.90;80.57;101216.47;5001807;28;20121;-74
2022/03/06 05:27:28;;;;;;;12.68;7.55;;;;;;;-1.67;79.66;101228.22;5008481;28;20049;-74
2022/03/06 05:29:54;;;;;;;13.80;9.18;;;;;;;-1.64;79.49;101222.38;5005243;28;20029;-73
2022/03/06 05:32:21;;;;;;;11.88;7.55;;;;;;;-1.77;80.24;101242.19;5002048;28;20046;-74
2022/03/06 05:34:47;;;;;;;12.20;7.80;;;;;;;-1.37;79.13;101239.50;5006836;28;20044;-73
2022/03/06 05:37:18;;;;;;;16.45;7.65;;;;;;;-1.09;78.58;101241.19;5006944;28;20041;-73
2022/03/06 05:39:44;;;;;;;14.90;7.03;;;;;;;-1.47;79.27;101244.03;5006619;28;20101;-74
2022/03/06 05:42:09;;;;;;;13.45;7.30;;;;;;;-1.32;79.23;101242.38;5007642;28;20030;-74
2022/03/06 05:44:35;;;;;;;19.45;8.02;;;;;;;-0.88;78.13;101236.44;5008039;28;20032;-74
2022/03/06 05:47:00;;;;;;;10.52;7.00;;;;;;;-0.81;77.47;101240.28;5006147;28;20054;-73
2022/03/06 05:49:26;;;;;;;14.38;8.00;;;;;;;-1.27;78.38;101239.28;5007559;28;20143;-73
2022/03/06 05:51:51;;;;;;;10.23;6.47;;;;;;;-0.81;77.75;101241.16;5012082;28;20581;-73
2022/03/06 05:54:17;;;;;;;13.43;6.00;;;;;;;-0.65;77.14;101242.94;5004613;28;20030;-73
2022/03/06 05:56:42;;;;;;;13.02;6.95;;;;;;;-0.48;76.95;101246.50;5003412;28;20500;-73
2022/03/06 05:59:08;;;;;;;11.18;7.15;;;;;;;-0.72;76.81;101244.28;5001698;28;20475;-73
2022/03/06 06:01:34;;;;;;;13.82;8.13;;;;;;;-0.55;76.32;101252.09;5007591;28;20050;-74
2022/03/06 06:04:00;;;;;;;11.80;6.78;;;;;;;-0.52;76.76;101245.41;5005408;28;20042;-76
2022/03/06 06:06:27;;;;;;;12.45;7.28;;;;;;;-0.48;76.28;101239.66;5004854;28;20057;-73
2022/03/06 06:08:54;;;;;;;12.63;6.90;;;;;;;-0.22;75.86;101253.16;5002484;28;20021;-73
2022/03/06 06:11:19;;;;;;;13.65;7.75;;;;;;;-0.30;75.48;101242.41;5004884;28;20070;-73
2022/03/06 06:13:46;;;;;;;11.20;8.77;;;;;;;-0.29;75.84;101251.03;5001547;28;20054;-73
2022/03/06 06:16:11;;;;;;;13.18;8.88;;;;;;;-0.61;77.15;101236.25;5004051;28;20625;-73
2022/03/06 06:18:37;;;;;;;16.70;7.47;;;;;;;-0.32;75.78;101249.16;5003650;28;20053;-73
2022/03/06 06:21:03;;;;;;;13.85;6.30;;;;;;;-0.49;76.25;101244.72;5004116;28;20490;-74
2022/03/06 06:23:29;;;;;;;14.32;7.43;;;;;;;-0.31;75.90;101239.72;4998208;28;20046;-73
2022/03/06 06:25:54;;;;;;;11.68;6.78;;;;;;;-0.50;76.54;101258.41;5002098;28;20516;-73
2022/03/06 06:28:20;;;;;;;14.38;8.50;;;;;;;-0.45;76.61;101252.69;5006905;28;20050;-73
2022/03/06 06:30:45;;;;;;;19.70;8.45;;;;;;;-0.26;76.22;101253.75;5003686;28;20125;-73
2022/03/06 06:33:11;;;;;;;18.60;8.00;;;;;;;-0.16;76.30;101258.66;5001499;28;20050;-73
2022/03/06 06:35:36;;;;;;;9.88;6.57;;;;;;;-0.23;76.74;101248.81;5006741;28;20720;-74
2022/03/06 06:38:03;;;;;;;14.77;6.95;;;;;;;-0.51;76.61;101251.50;5006527;28;20367;-74
2022/03/06 06:40:29;;;;;;;12.73;7.22;;;;;;;-0.46;76.61;101255.22;5006060;28;20450;-73
2022/03/06 06:42:55;;;;;;;11.65;7.72;;;;;;;-0.05;75.72;101243.78;5009042;28;20048;-73
2022/03/06 06:45:20;;;;;;;19.02;12.18;;;;;;;-0.10;75.95;101248.69;5007266;28;20026;-73
2022/03/06 06:47:46;;;;;;;13.93;6.47;;;;;;;-0.18;75.72;101249.94;5009259;28;20034;-73
2022/03/06 06:50:20;;;;;;;14.77;8.93;;;;;;;0.07;75.75;101267.69;5006736;28;20050;-74
2022/03/06 06:52:46;;;;;;;11.38;6.57;;;;;;;0.04;75.29;101264.94;5010027;28;20053;-74
2022/03/06 06:55:11;;;;;;;13.63;7.55;;;;;;;-0.15;75.53;101244.06;5009536;28;20520;-76
2022/03/06 06:57:37;;;;;;;11.88;7.50;;;;;;;0.21;74.71;101258.13;5006164;28;20478;-72
2022/03/06 07:00:03;;;;;;;12.85;7.78;;;;;;;0.22;75.48;101269.34;5007407;28;20030;-74
2022/03/06 07:02:29;;;;;;;10.75;7.40;;;;;;;0.37;74.78;101272.75;5007678;28;20046;-75
2022/03/06 07:04:54;;;;;;;14.75;8.48;;;;;;;0.45;74.00;101253.44;5007954;28;20089;-76
2022/03/06 07:07:20;;;;;;;13.15;7.63;;;;;;;0.60;73.71;101266.28;5006814;28;20039;-73
2022/03/06 07:09:45;;;;;;;9.23;5.10;;;;;;;0.61;74.07;101256.03;5008039;28;20474;-72
2022/03/06 07:12:11;;;;;;;12.02;7.40;;;;;;;0.52;74.29;101252.97;5008662;28;20026;-73
2022/03/06 07:14:37;;;;;;;12.07;6.85;;;;;;;0.65;73.63;101254.50;5008087;28;20466;-72
2022/03/06 07:17:02;;;;;;;16.35;8.43;;;;;;;1.11;73.02;101271.53;5006764;28;20140;-73
2022/03/06 07:19:28;;;;;;;19.67;10.18;;;;;;;1.23;72.04;101252.38;5009239;28;20057;-73
2022/03/06 07:21:53;;;;;;;17.92;8.00;;;;;;;1.31;71.21;101252.78;5008008;28;20486;-73
2022/03/06 07:24:19;;;;;;;16.92;11.38;;;;;;;1.51;71.41;101268.41;5010268;28;20033;-74
2022/03/06 07:26:44;;;;;;;10.30;5.22;;;;;;;1.43;69.77;101270.63;5008361;28;20053;-74
2022/03/06 07:29:10;;;;;;;8.50;5.75;;;;;;;1.77;69.10;101255.06;5007365;28;20041;-74
2022/03/06 07:31:35;;;;;;;13.05;8.27;;;;;;;1.39;69.26;101266.97;5001496;28;20046;-76
2022/03/06 07:34:01;;;;;;;14.18;8.27;;;;;;;1.42;70.12;101263.66;5007796;28;20125;-75
2022/03/06 07:36:26;;;;;;;10.88;6.47;;;;;;;1.63;68.50;101258.66;5006287;28;20100;-75
2022/03/06 07:38:52;;;;;;;16.30;9.75;;;;;;;2.10;67.40;101253.22;5010122;28;20022;-73
2022/03/06 07:41:18;;;;;;;12.57;7.88;;;;;;;2.45;65.73;101256.56;5010237;28;20084;-74
2022/03/06 07:43:44;;;;;;;14.50;11.13;;;;;;;1.55;67.18;101244.50;5010173;28;20038;-74
2022/03/06 07:46:10;;;;;;;14.50;7.95;;;;;;;2.03;65.81;101252.84;5006355;28;20049;-75
2022/03/06 07:48:35;;;;;;;14.10;8.23;;;;;;;2.36;65.63;101255.25;5004086;28;20046;-74
2022/03/06 07:51:01;;;;;;;10.15;6.18;;;;;;;2.59;64.30;101259.81;5002144;28;20442;-73
2022/03/06 07:53:27;;;;;;;17.75;9.02;;;;;;;2.65;63.19;101257.50;5005893;28;20050;-73
2022/03/06 07:55:53;;;;;;;15.05;5.35;;;;;;;2.65;62.94;101261.81;5002996;28;20117;-73
2022/03/06 07:58:18;;;;;;;9.57;6.65;;;;;;;2.67;62.87;101244.59;5004837;28;20044;-79
2022/03/06 08:00:44;;;;;;;12.25;7.38;;;;;;;2.86;62.94;101262.78;5005487;28;20049;-72
2022/03/06 08:03:09;;;;;;;8.48;6.20;;;;;;;2.20;63.38;101245.88;5006376;28;20357;-74
2022/03/06 08:05:35;;;;;;;12.07;8.23;;;;;;;1.61;63.94;101239.59;5007386;28;20544;-73
2022/03/06 08:08:00;;;;;;;19.30;9.00;;;;;;;2.29;63.19;101254.09;5003475;28;20101;-73
2022/03/06 08:10:26;;;;;;;10.85;5.57;;;;;;;2.63;62.44;101247.88;5010699;28;20462;-74
2022/03/06 08:16:15;;;;;;;7.53;5.35;;;;;;;3.10;59.55;101255.19;5006953;28;20041;-73
2022/03/06 08:18:40;;;;;;;11.38;6.45;;;;;;;3.25;57.88;101262.72;5006758;28;20050;-73
2022/03/06 08:21:06;;;;;;;8.70;5.20;;;;;;;2.79;57.88;101255.53;5008088;28;20484;-72
2022/03/06 08:23:31;;;;;;;9.50;6.22;;;;;;;2.90;58.54;101254.31;5003342;28;20437;-73
2022/03/06 08:25:57;;;;;;;9.85;6.00;;;;;;;2.62;58.25;101238.31;5004747;28;20425;-74
2022/03/06 08:28:22;;;;;;;12.07;5.70;;;;;;;2.64;58.63;101254.84;5004059;28;20654;-73
2022/03/06 08:30:48;;;;;;;12.07;6.25;;;;;;;2.95;57.59;101247.63;4999784;28;20114;-73
2022/03/06 08:33:13;;;;;;;8.57;5.57;;;;;;;2.92;57.57;101239.69;5005682;28;20042;-74
2022/03/06 08:35:39;;;;;;;10.90;7.00;;;;;;;3.44;56.94;101250.56;5006172;28;20072;-73
2022/03/06 08:38:04;;;;;;;8.10;4.20;;;;;;;3.26;56.86;101253.28;5005959;28;20042;-73
2022/03/06 08:40:31;;;;;;;15.88;9.35;;;;;;;2.77;58.12;101238.16;5005527;28;20057;-73
2022/03/06 08:42:57;;;;;;;10.45;5.97;;;;;;;2.84;58.99;101253.16;5003430;28;20251;-73
2022/03/06 08:45:23;;;;;;;10.90;5.80;;;;;;;2.86;58.67;101251.53;5006068;28;20133;-74
2022/03/06 08:47:49;;;;;;;9.15;5.97;;;;;;;3.25;58.14;101249.75;5008096;28;20022;-75
2022/03/06 08:50:14;;;;;;;11.10;5.82;;;;;;;2.87;59.39;101242.91;4988586;28;20154;-74
2022/03/06 08:52:40;;;;;;;10.02;6.15;;;;;;;2.94;58.54;101242.38;5005181;28;20041;-74
2022/03/06 08:55:06;;;;;;;13.02;5.78;;;;;;;3.27;57.04;101245.53;5006417;28;20042;-74
2022/03/06 08:57:31;;;;;;;9.18;5.47;;;;;;;2.78;57.76;101243.38;5006552;28;20045;-73
2022/03/06 08:59:57;;;;;;;9.88;6.43;;;;;;;3.01;57.52;101241.81;5005010;28;20034;-74
2022/03/06 09:02:23;;;;;;;8.55;5.90;;;;;;;2.65;57.72;101246.25;5006393;28;20523;-73
2022/03/06 09:04:48;;;;;;;10.15;5.78;;;;;;;2.71;57.14;101241.34;5005268;28;20030;-73
2022/03/06 09:07:14;;;;;;;15.45;6.60;;;;;;;2.78;57.18;101245.97;5004772;28;20057;-74
2022/03/06 09:09:39;;;;;;;11.13;6.18;;;;;;;3.21;56.90;101236.59;5004112;28;20055;-74
2022/03/06 09:12:05;;;;;;;11.40;6.40;;;;;;;3.13;57.08;101239.75;5006911;28;20091;-73
2022/03/06 09:14:31;;;;;;;8.82;4.28;;;;;;;3.09;58.53;101242.16;5006391;28;20054;-73
2022/03/06 09:16:56;;;;;;;11.80;6.95;;;;;;;3.30;57.61;101247.38;5004234;28;20073;-72
2022/03/06 09:19:22;;;;;;;11.77;6.57;;;;;;;3.38;56.87;101241.69;5005640;28;20096;-73
2022/03/06 09:21:47;;;;;;;13.60;7.57;;;;;;;3.54;56.71;101234.56;5005761;28;20463;-73
2022/03/06 09:24:13;;;;;;;10.00;7.07;;;;;;;3.55;56.77;101232.03;5004512;28;20038;-73
2022/03/06 09:26:39;;;;;;;6.72;4.80;;;;;;;3.45;55.71;101236.78;5005281;28;20034;-74
2022/03/06 09:29:05;;;;;;;9.48;6.25;;;;;;;3.12;56.01;101238.00;5005362;28;20049;-74
2022/03/06 09:31:31;;;;;;;9.02;5.65;;;;;;;3.06;57.71;101237.72;5000085;28;20079;-74
2022/03/06 09:33:57;;;;;;;10.18;5.65;;;;;;;2.43;58.17;101244.38;5004461;28;20550;-74
2022/03/06 09:36:22;;;;;;;12.35;6.47;;;;;;;2.72;58.49;101225.00;5005708;28;20534;-73
2022/03/06 09:38:48;;;;;;;8.07;5.65;;;;;;;3.29;57.29;101232.66;5003146;28;20083;-72
2022/03/06 09:41:16;;;;;;;9.20;5.80;;;;;;;2.70;57.87;101230.09;5004999;28;20045;-73
2022/03/06 09:43:43;;;;;;;9.32;3.97;;;;;;;3.04;57.74;101210.84;5005584;28;20049;-73
2022/03/06 09:46:08;;;;;;;18.02;6.32;;;;;;;2.96;57.50;101214.81;5006605;28;20125;-73
2022/03/06 09:48:35;;;;;;;13.93;6.25;;;;;;;2.47;58.23;101220.41;5005640;28;20145;-74
2022/03/06 09:51:03;;;;;;;8.68;5.75;;;;;;;2.57;58.68;101232.94;5004473;28;20163;-73
2022/03/06 09:53:29;;;;;;;9.75;5.65;;;;;;;2.86;58.15;101208.34;5004206;28;20042;-75
2022/03/06 09:55:54;;;;;;;15.98;5.75;;;;;;;2.92;58.07;101210.31;5003315;28;20053;-76
2022/03/06 09:58:20;;;;;;;9.90;3.55;;;;;;;3.33;56.71;101219.00;5000929;28;20050;-74
2022/03/06 10:00:45;;;;;;;16.15;6.63;;;;;;;3.01;57.09;101209.84;5005561;28;20045;-74
2022/03/06 10:03:21;;;;;;;10.77;6.50;;;;;;;3.19;57.46;101217.53;5003701;28;20029;-75
2022/03/06 10:05:47;;;;;;;13.15;6.75;;;;;;;3.20;56.58;101219.28;5004659;28;20435;-73
2022/03/06 10:08:25;;;;;;;10.18;4.22;;;;;;;2.33;58.59;101212.88;5005613;28;20054;-73
2022/03/06 10:10:52;;;;;;;9.75;6.07;;;;;;;2.82;58.05;101210.72;5003887;28;20609;-76
2022/03/06 10:13:29;;;;;;;11.57;7.18;;;;;;;3.02;57.33;101198.63;5006821;28;20132;-73
2022/03/06 10:16:03;;;;;;;11.98;7.35;;;;;;;2.83;58.07;101184.88;5002879;28;20109;-74
2022/03/06 10:18:40;;;;;;;10.95;5.20;;;;;;;2.32;59.81;101190.41;5007615;28;20097;-73
2022/03/06 10:21:08;;;;;;;9.55;6.05;;;;;;;2.49;59.66;101198.91;5007096;28;20087;-73
2022/03/06 10:23:35;;;;;;;12.40;5.97;;;;;;;2.66;59.91;101188.44;5008967;28;20061;-74
2022/03/06 10:26:06;;;;;;;10.70;7.07;;;;;;;2.71;58.52;101192.09;5008523;28;20072;-74
2022/03/06 10:28:42;;;;;;;14.23;5.82;;;;;;;3.08;58.26;101197.19;5009544;28;20049;-73
2022/03/06 10:31:08;;;;;;;9.52;6.53;;;;;;;3.58;56.97;101190.66;5002928;28;20046;-75
2022/03/06 10:33:33;;;;;;;6.60;4.43;;;;;;;3.10;56.67;101197.25;5007949;28;20053;-73
2022/03/06 10:36:02;;;;;;;8.82;5.45;;;;;;;2.57;58.48;101178.53;5007770;28;20125;-74
2022/03/06 10:38:35;;;;;;;12.50;7.18;;;;;;;3.28;56.89;101187.69;5007113;28;20140;-74
2022/03/06 10:41:12;;;;;;;15.10;7.28;;;;;;;3.79;56.98;101181.94;5007762;28;20132;-75
2022/03/06 10:43:40;;;;;;;12.18;6.07;;;;;;;3.70;55.68;101184.16;5002322;28;20143;-72
2022/03/06 10:46:11;;;;;;;11.65;4.55;;;;;;;3.54;56.68;101173.19;4990602;28;20463;-75
2022/03/06 10:48:38;;;;;;;9.80;5.53;;;;;;;2.73;57.03;101157.66;4992100;28;20081;-74
2022/03/06 10:51:07;;;;;;;10.20;7.18;;;;;;;3.09;57.19;101157.50;5009186;28;20034;-73
2022/03/06 10:53:34;;;;;;;10.05;6.00;;;;;;;3.77;56.23;101171.50;5008158;28;20074;-73
2022/03/06 10:56:28;;;;;;;9.55;4.72;;;;;;;3.87;54.69;101171.88;5006985;28;20075;-75
2022/03/06 10:58:56;;;;;;;11.52;4.43;;;;;;;3.46;55.69;101164.19;4997890;28;20070;-75
2022/03/06 11:01:23;;;;;;;9.98;6.03;;;;;;;3.75;55.07;101157.59;5007388;28;20034;-75
2022/03/06 11:03:50;;;;;;;12.38;6.00;;;;;;;4.11;54.71;101164.16;5008284;28;20104;-75
2022/03/06 11:06:19;;;;;;;16.75;7.30;;;;;;;3.87;52.79;101172.75;5005605;28;20045;-73
2022/03/06 11:08:45;;;;;;;9.52;6.45;;;;;;;4.10;54.46;101150.28;5008092;28;20080;-73
2022/03/06 11:11:12;;;;;;;9.50;5.85;;;;;;;3.95;53.81;101147.09;5007197;28;20054;-75
2022/03/06 11:13:38;;;;;;;10.35;6.90;;;;;;;4.20;53.68;101151.50;5006934;28;20060;-73
2022/03/06 11:16:04;;;;;;;8.40;6.45;;;;;;;4.25;53.29;101142.19;5008442;28;20049;-75
2022/03/06 11:18:30;;;;;;;17.30;8.00;;;;;;;4.41;52.97;101141.03;5009273;28;20054;-72
2022/03/06 11:21:01;;;;;;;7.70;6.18;;;;;;;4.11;53.48;101136.47;5007367;28;20117;-75
2022/03/06 11:23:42;;;;;;;11.48;8.07;;;;;;;4.65;52.20;101139.31;5008141;28;20050;-75